sensor_id;sensor_type;location;lat;lon;timestamp;pressure;altitude;pressure_sealevel;temperature;humidity
60228;BME280;46091;46.512;6.626;2023-06-04T07:26:05;96842.88;;;22.16;61.77
60228;BME280;46091;46.512;6.626;2023-06-04T07:28:08;96843.19;;;22.40;61.48
60228;BME280;46091;46.512;6.626;2023-06-04T07:30:12;96848.88;;;22.53;61.21
60228;BME280;46091;46.512;6.626;2023-06-04T07:32:15;96839.72;;;22.64;60.90
60228;BME280;46091;46.512;6.626;2023-06-04T07:34:18;96852.69;;;22.78;60.58
60228;BME280;46091;46.512;6.626;2023-06-04T07:36:21;96853.75;;;22.87;59.93
60228;BME280;46091;46.512;6.626;2023-06-04T07:38:24;96851.63;;;22.94;59.89
60228;BME280;46091;46.512;6.626;2023-06-04T07:40:27;96853.25;;;23.00;59.81
60228;BME280;46091;46.512;6.626;2023-06-04T07:42:32;96846.75;;;23.06;59.21
60228;BME280;46091;46.512;6.626;2023-06-04T07:44:36;96852.16;;;23.11;59.18
60228;BME280;46091;46.512;6.626;2023-06-04T07:46:39;96852.69;;;23.13;59.23
60228;BME280;46091;46.512;6.626;2023-06-04T07:48:43;96846.22;;;23.14;59.27
60228;BME280;46091;46.512;6.626;2023-06-04T07:50:45;96840.25;;;23.17;58.88
60228;BME280;46091;46.512;6.626;2023-06-04T07:52:48;96848.88;;;23.19;58.57
60228;BME280;46091;46.512;6.626;2023-06-04T07:54:51;96845.09;;;23.20;58.81
60228;BME280;46091;46.512;6.626;2023-06-04T07:56:54;96844.59;;;23.23;58.44
60228;BME280;46091;46.512;6.626;2023-06-04T07:58:59;96847.00;;;23.25;58.51
60228;BME280;46091;46.512;6.626;2023-06-04T08:01:02;96843.22;;;23.26;58.33
60228;BME280;46091;46.512;6.626;2023-06-04T08:03:05;96845.91;;;23.26;57.99
60228;BME280;46091;46.512;6.626;2023-06-04T08:05:08;96842.94;;;23.28;57.89
60228;BME280;46091;46.512;6.626;2023-06-04T08:09:15;96838.09;;;23.35;58.06
60228;BME280;46091;46.512;6.626;2023-06-04T08:11:19;96833.78;;;23.34;57.85
60228;BME280;46091;46.512;6.626;2023-06-04T08:13:24;96838.09;;;23.35;58.04
60228;BME280;46091;46.512;6.626;2023-06-04T08:15:28;96837.53;;;23.33;57.85
60228;BME280;46091;46.512;6.626;2023-06-04T08:17:31;96829.97;;;23.30;57.41
60228;BME280;46091;46.512;6.626;2023-06-04T08:19:34;96833.75;;;23.29;57.27
60228;BME280;46091;46.512;6.626;2023-06-04T08:21:38;96828.66;;;23.27;57.61
60228;BME280;46091;46.512;6.626;2023-06-04T08:23:41;96836.75;;;23.27;57.41
60228;BME280;46091;46.512;6.626;2023-06-04T08:25:45;96833.25;;;23.27;57.39
60228;BME280;46091;46.512;6.626;2023-06-04T08:27:47;96829.72;;;23.26;56.85
60228;BME280;46091;46.512;6.626;2023-06-04T08:29:50;96826.75;;;23.28;56.91
60228;BME280;46091;46.512;6.626;2023-06-04T08:31:55;96828.38;;;23.29;56.89
60228;BME280;46091;46.512;6.626;2023-06-04T08:36:01;96820.81;;;23.31;56.64
60228;BME280;46091;46.512;6.626;2023-06-04T08:38:04;96824.88;;;23.28;56.53
60228;BME280;46091;46.512;6.626;2023-06-04T08:40:09;96831.91;;;23.24;56.57
60228;BME280;46091;46.512;6.626;2023-06-04T08:42:18;96831.91;;;23.24;56.55
60228;BME280;46091;46.512;6.626;2023-06-04T08:44:24;96837.03;;;23.26;56.51
60228;BME280;46091;46.512;6.626;2023-06-04T08:46:28;96837.28;;;23.24;56.54
60228;BME280;46091;46.512;6.626;2023-06-04T08:48:32;96829.47;;;23.22;56.43
60228;BME280;46091;46.512;6.626;2023-06-04T08:50:35;96830.00;;;23.24;56.55
60228;BME280;46091;46.512;6.626;2023-06-04T08:52:39;96821.38;;;23.22;56.53
60228;BME280;46091;46.512;6.626;2023-06-04T08:54:42;96830.81;;;23.25;56.05
60228;BME280;46091;46.512;6.626;2023-06-04T08:56:45;96827.31;;;23.24;56.18
60228;BME280;46091;46.512;6.626;2023-06-04T08:58:48;96833.50;;;23.25;56.38
60228;BME280;46091;46.512;6.626;2023-06-04T09:00:53;96827.31;;;23.24;55.68
60228;BME280;46091;46.512;6.626;2023-06-04T09:02:56;96823.00;;;23.23;55.61
60228;BME280;46091;46.512;6.626;2023-06-04T09:05:02;96822.72;;;23.25;55.90
60228;BME280;46091;46.512;6.626;2023-06-04T09:07:07;96825.44;;;23.25;55.88
60228;BME280;46091;46.512;6.626;2023-06-04T09:09:12;96824.88;;;23.28;55.56
60228;BME280;46091;46.512;6.626;2023-06-04T09:11:18;96820.56;;;23.27;55.98
60228;BME280;46091;46.512;6.626;2023-06-04T09:13:22;96822.16;;;23.28;55.49
60228;BME280;46091;46.512;6.626;2023-06-04T09:15:30;96822.69;;;23.30;55.68
60228;BME280;46091;46.512;6.626;2023-06-04T09:17:32;96819.72;;;23.32;55.49
60228;BME280;46091;46.512;6.626;2023-06-04T09:21:51;96819.19;;;23.30;55.51
60228;BME280;46091;46.512;6.626;2023-06-04T09:23:54;96821.09;;;23.29;55.29
60228;BME280;46091;46.512;6.626;2023-06-04T09:26:06;96821.91;;;23.30;55.49
60228;BME280;46091;46.512;6.626;2023-06-04T09:28:09;96818.38;;;23.29;55.30
60228;BME280;46091;46.512;6.626;2023-06-04T09:30:12;96813.00;;;23.29;54.95
60228;BME280;46091;46.512;6.626;2023-06-04T09:32:20;96803.84;;;23.25;55.16
60228;BME280;46091;46.512;6.626;2023-06-04T09:34:27;96810.06;;;23.26;55.04
60228;BME280;46091;46.512;6.626;2023-06-04T09:36:30;96806.78;;;23.29;54.67
60228;BME280;46091;46.512;6.626;2023-06-04T09:38:35;96815.41;;;23.31;54.87
60228;BME280;46091;46.512;6.626;2023-06-04T09:40:38;96808.94;;;23.32;54.62
60228;BME280;46091;46.512;6.626;2023-06-04T09:42:42;96807.31;;;23.31;54.65
60228;BME280;46091;46.512;6.626;2023-06-04T09:44:45;96810.56;;;23.33;54.31
60228;BME280;46091;46.512;6.626;2023-06-04T09:46:53;96803.53;;;23.32;54.65
60228;BME280;46091;46.512;6.626;2023-06-04T09:51:08;96814.09;;;23.33;54.38
60228;BME280;46091;46.512;6.626;2023-06-04T09:53:15;96812.72;;;23.36;54.47
60228;BME280;46091;46.512;6.626;2023-06-04T09:55:20;96808.94;;;23.37;54.19
60228;BME280;46091;46.512;6.626;2023-06-04T09:57:24;96812.97;;;23.39;53.95
60228;BME280;46091;46.512;6.626;2023-06-04T09:59:28;96813.78;;;23.40;54.38
60228;BME280;46091;46.512;6.626;2023-06-04T10:01:33;96816.47;;;23.40;54.10
60228;BME280;46091;46.512;6.626;2023-06-04T10:03:36;96818.63;;;23.43;54.26
60228;BME280;46091;46.512;6.626;2023-06-04T10:05:41;96813.78;;;23.45;54.19
60228;BME280;46091;46.512;6.626;2023-06-04T10:07:45;96813.50;;;23.46;53.75
60228;BME280;46091;46.512;6.626;2023-06-04T10:09:49;96805.41;;;23.46;54.15
60228;BME280;46091;46.512;6.626;2023-06-04T10:11:57;96806.22;;;23.47;53.83
60228;BME280;46091;46.512;6.626;2023-06-04T10:14:03;96806.50;;;23.45;54.13
60228;BME280;46091;46.512;6.626;2023-06-04T10:16:07;96807.81;;;23.43;54.22
60228;BME280;46091;46.512;6.626;2023-06-04T10:18:30;96802.44;;;23.43;54.15
60228;BME280;46091;46.512;6.626;2023-06-04T10:20:34;96804.03;;;23.44;53.84
60228;BME280;46091;46.512;6.626;2023-06-04T10:22:37;96800.81;;;23.42;53.64
60228;BME280;46091;46.512;6.626;2023-06-04T10:24:40;96794.91;;;23.45;53.88
60228;BME280;46091;46.512;6.626;2023-06-04T10:26:43;96796.22;;;23.47;53.92
60228;BME280;46091;46.512;6.626;2023-06-04T10:28:48;96801.34;;;23.49;53.52
60228;BME280;46091;46.512;6.626;2023-06-04T10:30:52;96798.13;;;23.47;53.07
60228;BME280;46091;46.512;6.626;2023-06-04T10:32:56;96798.66;;;23.49;53.39
60228;BME280;46091;46.512;6.626;2023-06-04T10:35:03;96796.19;;;23.52;53.18
60228;BME280;46091;46.512;6.626;2023-06-04T10:37:18;96796.47;;;23.56;53.38
60228;BME280;46091;46.512;6.626;2023-06-04T10:39:25;96790.53;;;23.59;53.36
60228;BME280;46091;46.512;6.626;2023-06-04T10:41:29;96806.19;;;23.62;53.01
60228;BME280;46091;46.512;6.626;2023-06-04T10:43:32;96798.63;;;23.64;53.18
60228;BME280;46091;46.512;6.626;2023-06-04T10:45:37;96797.25;;;23.67;52.72
60228;BME280;46091;46.512;6.626;2023-06-04T10:47:40;96797.00;;;23.68;52.70
60228;BME280;46091;46.512;6.626;2023-06-04T10:49:43;96804.53;;;23.71;52.77
60228;BME280;46091;46.512;6.626;2023-06-04T10:51:46;96794.00;;;23.70;52.67
60228;BME280;46091;46.512;6.626;2023-06-04T10:53:49;96792.41;;;23.69;52.24
60228;BME280;46091;46.512;6.626;2023-06-04T10:55:52;96787.81;;;23.69;52.01
60228;BME280;46091;46.512;6.626;2023-06-04T10:57:55;96784.03;;;23.70;51.89
60228;BME280;46091;46.512;6.626;2023-06-04T11:00:00;96775.41;;;23.68;51.98
60228;BME280;46091;46.512;6.626;2023-06-04T11:02:07;96773.75;;;23.72;51.77
60228;BME280;46091;46.512;6.626;2023-06-04T11:04:20;96773.19;;;23.75;51.14
60228;BME280;46091;46.512;6.626;2023-06-04T11:06:25;96770.47;;;23.80;51.22
60228;BME280;46091;46.512;6.626;2023-06-04T11:08:30;96767.22;;;23.84;50.84
60228;BME280;46091;46.512;6.626;2023-06-04T11:10:34;96761.25;;;23.87;50.86
60228;BME280;46091;46.512;6.626;2023-06-04T11:12:44;96762.59;;;23.89;50.48
60228;BME280;46091;46.512;6.626;2023-06-04T11:14:54;96762.03;;;23.92;50.71
60228;BME280;46091;46.512;6.626;2023-06-04T11:16:57;96755.28;;;23.95;50.31
60228;BME280;46091;46.512;6.626;2023-06-04T11:19:01;96747.41;;;23.98;50.07
60228;BME280;46091;46.512;6.626;2023-06-04T11:21:04;96755.78;;;24.02;49.85
60228;BME280;46091;46.512;6.626;2023-06-04T11:23:08;96752.00;;;24.03;49.78
60228;BME280;46091;46.512;6.626;2023-06-04T11:25:11;96745.22;;;24.05;49.80
60228;BME280;46091;46.512;6.626;2023-06-04T11:27:17;96748.69;;;24.11;49.59
60228;BME280;46091;46.512;6.626;2023-06-04T11:29:37;96751.94;;;24.13;49.25
60228;BME280;46091;46.512;6.626;2023-06-04T11:31:43;96757.56;;;24.17;49.47
60228;BME280;46091;46.512;6.626;2023-06-04T11:33:47;96752.41;;;24.20;49.30
60228;BME280;46091;46.512;6.626;2023-06-04T11:35:52;96755.63;;;24.22;49.00
60228;BME280;46091;46.512;6.626;2023-06-04T11:37:55;96753.47;;;24.24;48.95
60228;BME280;46091;46.512;6.626;2023-06-04T11:39:59;96748.06;;;24.24;48.85
60228;BME280;46091;46.512;6.626;2023-06-04T11:42:05;96750.72;;;24.29;49.00
60228;BME280;46091;46.512;6.626;2023-06-04T11:44:08;96742.59;;;24.34;48.81
60228;BME280;46091;46.512;6.626;2023-06-04T11:46:12;96736.66;;;24.37;48.72
60228;BME280;46091;46.512;6.626;2023-06-04T11:48:15;96733.38;;;24.41;48.52
60228;BME280;46091;46.512;6.626;2023-06-04T11:50:18;96734.97;;;24.42;48.64
60228;BME280;46091;46.512;6.626;2023-06-04T11:52:23;96736.31;;;24.44;48.38
60228;BME280;46091;46.512;6.626;2023-06-04T11:54:26;96735.22;;;24.45;48.25
60228;BME280;46091;46.512;6.626;2023-06-04T11:56:29;96740.06;;;24.48;48.22
60228;BME280;46091;46.512;6.626;2023-06-04T11:58:32;96744.38;;;24.49;47.86
60228;BME280;46091;46.512;6.626;2023-06-04T12:00:35;96736.78;;;24.51;47.76
60228;BME280;46091;46.512;6.626;2023-06-04T12:02:39;96739.50;;;24.51;47.71
60228;BME280;46091;46.512;6.626;2023-06-04T12:04:50;96743.00;;;24.52;47.54
60228;BME280;46091;46.512;6.626;2023-06-04T12:06:54;96746.00;;;24.50;47.71
60228;BME280;46091;46.512;6.626;2023-06-04T12:08:59;96739.78;;;24.50;47.27
60228;BME280;46091;46.512;6.626;2023-06-04T12:11:02;96732.50;;;24.50;47.46
60228;BME280;46091;46.512;6.626;2023-06-04T12:13:05;96743.28;;;24.50;47.44
60228;BME280;46091;46.512;6.626;2023-06-04T12:15:09;96741.41;;;24.51;47.18
60228;BME280;46091;46.512;6.626;2023-06-04T12:17:12;96748.41;;;24.52;47.23
60228;BME280;46091;46.512;6.626;2023-06-04T12:19:15;96751.13;;;24.52;46.83
60228;BME280;46091;46.512;6.626;2023-06-04T12:21:21;96740.03;;;24.53;46.76
60228;BME280;46091;46.512;6.626;2023-06-04T12:23:28;96726.50;;;24.53;46.57
60228;BME280;46091;46.512;6.626;2023-06-04T12:25:33;96735.66;;;24.57;46.73
60228;BME280;46091;46.512;6.626;2023-06-04T12:27:46;96727.28;;;24.59;46.35
60228;BME280;46091;46.512;6.626;2023-06-04T12:29:55;96718.09;;;24.60;46.51
60228;BME280;46091;46.512;6.626;2023-06-04T12:32:04;96712.63;;;24.65;46.23
60228;BME280;46091;46.512;6.626;2023-06-04T12:34:13;96720.16;;;24.68;46.34
60228;BME280;46091;46.512;6.626;2023-06-04T12:36:16;96714.47;;;24.70;46.24
60228;BME280;46091;46.512;6.626;2023-06-04T12:38:19;96712.59;;;24.70;46.00
60228;BME280;46091;46.512;6.626;2023-06-04T12:40:22;96707.41;;;24.74;45.88
60228;BME280;46091;46.512;6.626;2023-06-04T12:42:26;96719.03;;;24.74;45.67
60228;BME280;46091;46.512;6.626;2023-06-04T12:44:29;96714.13;;;24.76;46.11
60228;BME280;46091;46.512;6.626;2023-06-04T12:46:36;96715.69;;;24.82;46.19
60228;BME280;46091;46.512;6.626;2023-06-04T12:48:39;96716.41;;;24.93;46.01
60228;BME280;46091;46.512;6.626;2023-06-04T12:50:41;96709.53;;;25.01;45.64
60228;BME280;46091;46.512;6.626;2023-06-04T12:52:44;96708.94;;;25.09;45.77
60228;BME280;46091;46.512;6.626;2023-06-04T12:54:48;96703.75;;;25.12;45.67
60228;BME280;46091;46.512;6.626;2023-06-04T12:56:51;96698.31;;;25.17;45.71
60228;BME280;46091;46.512;6.626;2023-06-04T12:58:55;96699.03;;;25.23;45.75
60228;BME280;46091;46.512;6.626;2023-06-04T13:00:59;96689.81;;;25.24;45.29
60228;BME280;46091;46.512;6.626;2023-06-04T13:03:02;96681.72;;;25.24;45.39
60228;BME280;46091;46.512;6.626;2023-06-04T13:05:05;96676.84;;;25.26;45.47
60228;BME280;46091;46.512;6.626;2023-06-04T13:07:09;96688.47;;;25.27;45.32
60228;BME280;46091;46.512;6.626;2023-06-04T13:09:12;96675.44;;;25.29;45.46
60228;BME280;46091;46.512;6.626;2023-06-04T13:11:15;96670.84;;;25.29;45.49
60228;BME280;46091;46.512;6.626;2023-06-04T13:13:20;96678.66;;;25.31;45.13
60228;BME280;46091;46.512;6.626;2023-06-04T13:15:24;96676.25;;;25.29;44.85
60228;BME280;46091;46.512;6.626;2023-06-04T13:17:27;96680.06;;;25.28;44.48
60228;BME280;46091;46.512;6.626;2023-06-04T13:19:30;96680.56;;;25.30;44.71
60228;BME280;46091;46.512;6.626;2023-06-04T13:21:33;96681.06;;;25.32;44.90
60228;BME280;46091;46.512;6.626;2023-06-04T13:23:36;96690.50;;;25.35;44.88
60228;BME280;46091;46.512;6.626;2023-06-04T13:25:51;96693.72;;;25.37;44.96
60228;BME280;46091;46.512;6.626;2023-06-04T13:27:53;96705.09;;;25.39;44.77
60228;BME280;46091;46.512;6.626;2023-06-04T13:29:56;96704.22;;;25.43;44.72
60228;BME280;46091;46.512;6.626;2023-06-04T13:32:01;96711.44;;;25.48;44.82
60228;BME280;46091;46.512;6.626;2023-06-04T13:34:04;96711.19;;;25.49;44.85
60228;BME280;46091;46.512;6.626;2023-06-04T13:36:26;96722.50;;;25.51;44.71
60228;BME280;46091;46.512;6.626;2023-06-04T13:38:29;96721.41;;;25.52;44.84
60228;BME280;46091;46.512;6.626;2023-06-04T13:40:33;96727.13;;;25.51;44.87
60228;BME280;46091;46.512;6.626;2023-06-04T13:42:36;96729.31;;;25.49;45.12
60228;BME280;46091;46.512;6.626;2023-06-04T13:44:39;96726.38;;;25.45;45.21
60228;BME280;46091;46.512;6.626;2023-06-04T13:46:42;96722.94;;;25.40;45.33
60228;BME280;46091;46.512;6.626;2023-06-04T13:48:46;96717.28;;;25.36;45.84
60228;BME280;46091;46.512;6.626;2023-06-04T13:50:49;96711.34;;;25.34;45.65
60228;BME280;46091;46.512;6.626;2023-06-04T13:52:52;96714.56;;;25.36;46.02
60228;BME280;46091;46.512;6.626;2023-06-04T13:54:55;96706.44;;;25.36;46.02
60228;BME280;46091;46.512;6.626;2023-06-04T13:57:01;96706.44;;;25.36;45.85
60228;BME280;46091;46.512;6.626;2023-06-04T13:59:05;96718.06;;;25.37;45.84
60228;BME280;46091;46.512;6.626;2023-06-04T14:01:09;96707.53;;;25.35;46.21
60228;BME280;46091;46.512;6.626;2023-06-04T14:03:12;96705.66;;;25.36;45.97
60228;BME280;46091;46.512;6.626;2023-06-04T14:05:17;96701.56;;;25.38;46.34
60228;BME280;46091;46.512;6.626;2023-06-04T14:07:20;96709.09;;;25.41;45.86
60228;BME280;46091;46.512;6.626;2023-06-04T14:09:23;96708.81;;;25.43;46.17
60228;BME280;46091;46.512;6.626;2023-06-04T14:11:26;96703.09;;;25.44;46.08
60228;BME280;46091;46.512;6.626;2023-06-04T14:13:28;96704.41;;;25.47;45.85
60228;BME280;46091;46.512;6.626;2023-06-04T14:15:32;96701.44;;;25.48;45.87
60228;BME280;46091;46.512;6.626;2023-06-04T14:17:34;96706.56;;;25.50;46.10
60228;BME280;46091;46.512;6.626;2023-06-04T14:19:38;96714.91;;;25.53;45.56
60228;BME280;46091;46.512;6.626;2023-06-04T14:21:43;96716.22;;;25.56;45.58
60228;BME280;46091;46.512;6.626;2023-06-04T14:23:49;96707.25;;;25.61;45.64
60228;BME280;46091;46.512;6.626;2023-06-04T14:25:52;96712.56;;;25.66;45.45
60228;BME280;46091;46.512;6.626;2023-06-04T14:27:55;96711.47;;;25.67;45.71
60228;BME280;46091;46.512;6.626;2023-06-04T14:29:58;96706.56;;;25.69;45.80
60228;BME280;46091;46.512;6.626;2023-06-04T14:32:01;96714.97;;;25.72;45.65
60228;BME280;46091;46.512;6.626;2023-06-04T14:34:04;96715.47;;;25.74;46.08
60228;BME280;46091;46.512;6.626;2023-06-04T14:36:08;96709.75;;;25.76;45.93
60228;BME280;46091;46.512;6.626;2023-06-04T14:38:13;96712.47;;;25.76;45.95
60228;BME280;46091;46.512;6.626;2023-06-04T14:40:17;96715.22;;;25.71;46.20
60228;BME280;46091;46.512;6.626;2023-06-04T14:42:19;96711.97;;;25.69;46.29
60228;BME280;46091;46.512;6.626;2023-06-04T14:44:22;96711.19;;;25.68;46.37
60228;BME280;46091;46.512;6.626;2023-06-04T14:46:26;96703.34;;;25.67;46.23
60228;BME280;46091;46.512;6.626;2023-06-04T14:48:29;96700.94;;;25.65;46.18
60228;BME280;46091;46.512;6.626;2023-06-04T14:50:33;96693.72;;;25.61;46.14
60228;BME280;46091;46.512;6.626;2023-06-04T14:52:36;96689.66;;;25.58;46.32
60228;BME280;46091;46.512;6.626;2023-06-04T14:54:40;96698.06;;;25.57;46.37
60228;BME280;46091;46.512;6.626;2023-06-04T14:56:43;96693.47;;;25.57;46.38
60228;BME280;46091;46.512;6.626;2023-06-04T14:58:46;96698.88;;;25.57;46.56
60228;BME280;46091;46.512;6.626;2023-06-04T15:00:49;96697.28;;;25.56;46.61
60228;BME280;46091;46.512;6.626;2023-06-04T15:02:52;96690.03;;;25.51;46.29
60228;BME280;46091;46.512;6.626;2023-06-04T15:04:55;96686.28;;;25.47;46.60
60228;BME280;46091;46.512;6.626;2023-06-04T15:06:58;96692.28;;;25.44;46.35
60228;BME280;46091;46.512;6.626;2023-06-04T15:09:01;96684.75;;;25.41;46.33
60228;BME280;46091;46.512;6.626;2023-06-04T15:11:06;96686.94;;;25.39;46.27
60228;BME280;46091;46.512;6.626;2023-06-04T15:13:11;96691.31;;;25.35;46.18
60228;BME280;46091;46.512;6.626;2023-06-04T15:15:14;96696.81;;;25.30;46.34
60228;BME280;46091;46.512;6.626;2023-06-04T15:17:17;96701.44;;;25.24;46.01
60228;BME280;46091;46.512;6.626;2023-06-04T15:19:20;96708.25;;;25.22;45.73
60228;BME280;46091;46.512;6.626;2023-06-04T15:21:23;96707.22;;;25.18;45.78
60228;BME280;46091;46.512;6.626;2023-06-04T15:23:26;96702.97;;;25.12;45.81
60228;BME280;46091;46.512;6.626;2023-06-04T15:25:30;96714.94;;;25.06;45.69
60228;BME280;46091;46.512;6.626;2023-06-04T15:27:34;96714.44;;;24.98;45.70
60228;BME280;46091;46.512;6.626;2023-06-04T15:29:40;96721.81;;;24.93;45.68
60228;BME280;46091;46.512;6.626;2023-06-04T15:31:44;96723.97;;;24.91;45.50
60228;BME280;46091;46.512;6.626;2023-06-04T15:33:47;96718.84;;;24.89;45.17
60228;BME280;46091;46.512;6.626;2023-06-04T15:35:50;96717.81;;;24.85;45.18
60228;BME280;46091;46.512;6.626;2023-06-04T15:37:54;96716.72;;;24.86;44.88
60228;BME280;46091;46.512;6.626;2023-06-04T15:39:57;96722.72;;;24.83;44.39
60228;BME280;46091;46.512;6.626;2023-06-04T15:42:01;96724.91;;;24.81;44.23
60228;BME280;46091;46.512;6.626;2023-06-04T15:44:05;96737.38;;;24.77;44.27
60228;BME280;46091;46.512;6.626;2023-06-04T15:46:08;96729.84;;;24.74;43.90
60228;BME280;46091;46.512;6.626;2023-06-04T15:48:11;96730.41;;;24.71;44.11
60228;BME280;46091;46.512;6.626;2023-06-04T15:50:15;96730.69;;;24.70;43.72
60228;BME280;46091;46.512;6.626;2023-06-04T15:52:18;96727.19;;;24.69;43.58
60228;BME280;46091;46.512;6.626;2023-06-04T15:54:22;96734.75;;;24.67;43.47
60228;BME280;46091;46.512;6.626;2023-06-04T15:56:44;96731.53;;;24.65;43.34
60228;BME280;46091;46.512;6.626;2023-06-04T15:58:47;96733.72;;;24.63;43.24
60228;BME280;46091;46.512;6.626;2023-06-04T16:00:52;96729.69;;;24.60;43.15
60228;BME280;46091;46.512;6.626;2023-06-04T16:02:54;96735.09;;;24.60;43.12
60228;BME280;46091;46.512;6.626;2023-06-04T16:04:57;96734.28;;;24.60;43.03
60228;BME280;46091;46.512;6.626;2023-06-04T16:07:00;96744.03;;;24.56;42.84
60228;BME280;46091;46.512;6.626;2023-06-04T16:09:03;96746.22;;;24.54;42.89
60228;BME280;46091;46.512;6.626;2023-06-04T16:11:07;96739.22;;;24.53;42.87
60228;BME280;46091;46.512;6.626;2023-06-04T16:13:10;96733.00;;;24.52;42.74
60228;BME280;46091;46.512;6.626;2023-06-04T16:15:13;96726.78;;;24.52;42.36
60228;BME280;46091;46.512;6.626;2023-06-04T16:17:18;96729.22;;;24.53;42.43
60228;BME280;46091;46.512;6.626;2023-06-04T16:19:21;96723.56;;;24.50;42.52
60228;BME280;46091;46.512;6.626;2023-06-04T16:21:27;96718.47;;;24.48;42.45
60228;BME280;46091;46.512;6.626;2023-06-04T16:23:30;96714.94;;;24.48;42.45
60228;BME280;46091;46.512;6.626;2023-06-04T16:25:33;96719.50;;;24.52;41.98
60228;BME280;46091;46.512;6.626;2023-06-04T16:27:38;96715.13;;;24.56;41.95
60228;BME280;46091;46.512;6.626;2023-06-04T16:29:40;96714.88;;;24.58;41.65
60228;BME280;46091;46.512;6.626;2023-06-04T16:31:43;96712.16;;;24.58;41.76
60228;BME280;46091;46.512;6.626;2023-06-04T16:33:48;96708.06;;;24.60;42.08
60228;BME280;46091;46.512;6.626;2023-06-04T16:35:51;96711.59;;;24.61;41.90
60228;BME280;46091;46.512;6.626;2023-06-04T16:37:54;96712.09;;;24.63;41.41
60228;BME280;46091;46.512;6.626;2023-06-04T16:39:57;96709.16;;;24.59;41.30
60228;BME280;46091;46.512;6.626;2023-06-04T16:42:00;96707.28;;;24.60;41.65
60228;BME280;46091;46.512;6.626;2023-06-04T16:44:04;96717.22;;;24.64;41.40
60228;BME280;46091;46.512;6.626;2023-06-04T16:46:07;96712.09;;;24.63;41.41
60228;BME280;46091;46.512;6.626;2023-06-04T16:48:10;96706.69;;;24.63;41.09
60228;BME280;46091;46.512;6.626;2023-06-04T16:50:15;96716.41;;;24.64;41.42
60228;BME280;46091;46.512;6.626;2023-06-04T16:52:18;96706.69;;;24.63;40.89
60228;BME280;46091;46.512;6.626;2023-06-04T16:54:20;96702.97;;;24.59;41.21
60228;BME280;46091;46.512;6.626;2023-06-04T16:56:23;96712.16;;;24.58;41.00
60228;BME280;46091;46.512;6.626;2023-06-04T16:58:27;96708.63;;;24.57;40.71
60228;BME280;46091;46.512;6.626;2023-06-04T17:00:31;96702.41;;;24.57;40.73
60228;BME280;46091;46.512;6.626;2023-06-04T17:02:35;96707.31;;;24.55;40.86
60228;BME280;46091;46.512;6.626;2023-06-04T17:04:38;96710.00;;;24.55;40.91
60228;BME280;46091;46.512;6.626;2023-06-04T17:06:44;96709.72;;;24.56;40.60
60228;BME280;46091;46.512;6.626;2023-06-04T17:08:46;96714.88;;;24.58;40.67
60228;BME280;46091;46.512;6.626;2023-06-04T17:10:49;96718.38;;;24.58;40.37
60228;BME280;46091;46.512;6.626;2023-06-04T17:12:52;96719.44;;;24.57;40.39
60228;BME280;46091;46.512;6.626;2023-06-04T17:14:55;96712.72;;;24.55;40.43
60228;BME280;46091;46.512;6.626;2023-06-04T17:16:58;96711.91;;;24.54;40.22
60228;BME280;46091;46.512;6.626;2023-06-04T17:19:01;96710.00;;;24.55;40.25
60228;BME280;46091;46.512;6.626;2023-06-04T17:21:04;96713.00;;;24.53;40.27
60228;BME280;46091;46.512;6.626;2023-06-04T17:23:19;96709.19;;;24.54;40.08
60228;BME280;46091;46.512;6.626;2023-06-04T17:25:23;96715.94;;;24.57;40.45
60228;BME280;46091;46.512;6.626;2023-06-04T17:27:25;96718.09;;;24.60;40.08
60228;BME280;46091;46.512;6.626;2023-06-04T17:29:28;96715.38;;;24.60;39.84
60228;BME280;46091;46.512;6.626;2023-06-04T17:31:31;96709.97;;;24.60;39.84
60228;BME280;46091;46.512;6.626;2023-06-04T17:33:34;96710.78;;;24.60;40.27
60228;BME280;46091;46.512;6.626;2023-06-04T17:35:37;96718.88;;;24.60;40.14
60228;BME280;46091;46.512;6.626;2023-06-04T17:37:40;96716.19;;;24.60;40.21
60228;BME280;46091;46.512;6.626;2023-06-04T17:39:45;96716.47;;;24.59;40.00
60228;BME280;46091;46.512;6.626;2023-06-04T17:41:48;96721.06;;;24.58;40.10
60228;BME280;46091;46.512;6.626;2023-06-04T17:43:51;96721.06;;;24.58;40.14
60228;BME280;46091;46.512;6.626;2023-06-04T17:45:54;96720.53;;;24.56;40.68
60228;BME280;46091;46.512;6.626;2023-06-04T17:47:59;96717.03;;;24.56;40.59
60228;BME280;46091;46.512;6.626;2023-06-04T17:50:02;96715.41;;;24.55;40.88
60228;BME280;46091;46.512;6.626;2023-06-04T17:52:08;96715.13;;;24.56;40.72
60228;BME280;46091;46.512;6.626;2023-06-04T17:54:11;96710.81;;;24.55;40.50
60228;BME280;46091;46.512;6.626;2023-06-04T17:56:15;96705.91;;;24.57;41.12
60228;BME280;46091;46.512;6.626;2023-06-04T17:58:18;96717.56;;;24.58;40.99
60228;BME280;46091;46.512;6.626;2023-06-04T18:00:21;96710.78;;;24.60;40.78
60228;BME280;46091;46.512;6.626;2023-06-04T18:02:25;96711.28;;;24.62;41.08
60228;BME280;46091;46.512;6.626;2023-06-04T18:04:28;96717.56;;;24.58;40.57
60228;BME280;46091;46.512;6.626;2023-06-04T18:06:30;96717.03;;;24.56;41.19
60228;BME280;46091;46.512;6.626;2023-06-04T18:08:33;96716.47;;;24.59;40.88
60228;BME280;46091;46.512;6.626;2023-06-04T18:10:37;96714.28;;;24.61;41.10
60228;BME280;46091;46.512;6.626;2023-06-04T18:12:43;96716.94;;;24.66;40.79
60228;BME280;46091;46.512;6.626;2023-06-04T18:14:46;96720.16;;;24.68;41.17
60228;BME280;46091;46.512;6.626;2023-06-04T18:16:50;96717.22;;;24.64;41.05
60228;BME280;46091;46.512;6.626;2023-06-04T18:18:53;96717.00;;;24.61;41.03
60228;BME280;46091;46.512;6.626;2023-06-04T18:20:56;96707.50;;;24.63;41.26
60228;BME280;46091;46.512;6.626;2023-06-04T18:22:58;96702.91;;;24.64;40.97
60228;BME280;46091;46.512;6.626;2023-06-04T18:25:01;96707.22;;;24.65;41.27
60228;BME280;46091;46.512;6.626;2023-06-04T18:27:05;96704.50;;;24.65;41.33
60228;BME280;46091;46.512;6.626;2023-06-04T18:29:09;96706.69;;;24.63;41.33
60228;BME280;46091;46.512;6.626;2023-06-04T18:31:12;96701.88;;;24.60;41.44